sensor_id;sensor_type;location;lat;lon;timestamp;P1;durP1;ratioP1;P2;durP2;ratioP2
6985;SDS011;3533;51.246;6.850;2022-09-17T00:01:55;1.17;;;0.80;;
6985;SDS011;3533;51.246;6.850;2022-09-17T00:04:20;1.03;;;0.90;;
6985;SDS011;3533;51.246;6.850;2022-09-17T00:06:46;1.00;;;0.90;;
6985;SDS011;3533;51.246;6.850;2022-09-17T00:09:11;0.97;;;0.70;;
6985;SDS011;3533;51.246;6.850;2022-09-17T00:11:38;1.00;;;0.70;;
6985;SDS011;3533;51.246;6.850;2022-09-17T00:14:05;1.13;;;1.03;;
6985;SDS011;3533;51.246;6.850;2022-09-17T00:16:34;1.03;;;0.93;;
6985;SDS011;3533;51.246;6.850;2022-09-17T00:19:02;1.30;;;1.13;;
6985;SDS011;3533;51.246;6.850;2022-09-17T00:21:29;0.83;;;0.83;;
6985;SDS011;3533;51.246;6.850;2022-09-17T00:23:56;1.27;;;1.17;;
6985;SDS011;3533;51.246;6.850;2022-09-17T00:26:27;1.27;;;1.07;;
6985;SDS011;3533;51.246;6.850;2022-09-17T00:28:53;1.10;;;0.80;;
6985;SDS011;3533;51.246;6.850;2022-09-17T00:31:20;1.00;;;0.90;;
6985;SDS011;3533;51.246;6.850;2022-09-17T00:33:46;1.20;;;0.80;;
6985;SDS011;3533;51.246;6.850;2022-09-17T00:36:13;0.93;;;0.80;;
6985;SDS011;3533;51.246;6.850;2022-09-17T00:38:38;0.80;;;0.80;;
6985;SDS011;3533;51.246;6.850;2022-09-17T00:41:04;1.87;;;0.90;;
6985;SDS011;3533;51.246;6.850;2022-09-17T00:46:07;0.90;;;0.80;;
6985;SDS011;3533;51.246;6.850;2022-09-17T00:48:40;0.83;;;0.77;;
6985;SDS011;3533;51.246;6.850;2022-09-17T00:51:06;1.00;;;0.70;;
6985;SDS011;3533;51.246;6.850;2022-09-17T00:53:35;1.10;;;0.80;;
6985;SDS011;3533;51.246;6.850;2022-09-17T00:56:02;0.87;;;0.77;;
6985;SDS011;3533;51.246;6.850;2022-09-17T00:58:33;1.00;;;0.90;;
6985;SDS011;3533;51.246;6.850;2022-09-17T01:01:00;1.33;;;0.80;;
6985;SDS011;3533;51.246;6.850;2022-09-17T01:03:26;1.00;;;0.73;;
6985;SDS011;3533;51.246;6.850;2022-09-17T01:13:55;0.90;;;0.70;;
6985;SDS011;3533;51.246;6.850;2022-09-17T01:16:35;0.97;;;0.87;;
6985;SDS011;3533;51.246;6.850;2022-09-17T01:19:21;0.80;;;0.80;;
6985;SDS011;3533;51.246;6.850;2022-09-17T01:25:21;0.90;;;0.70;;
6985;SDS011;3533;51.246;6.850;2022-09-17T01:28:19;1.00;;;0.90;;
6985;SDS011;3533;51.246;6.850;2022-09-17T01:33:59;0.80;;;0.80;;
6985;SDS011;3533;51.246;6.850;2022-09-17T01:42:18;1.13;;;1.03;;
6985;SDS011;3533;51.246;6.850;2022-09-17T01:50:06;1.10;;;0.80;;
6985;SDS011;3533;51.246;6.850;2022-09-17T01:52:37;1.00;;;0.90;;
6985;SDS011;3533;51.246;6.850;2022-09-17T01:55:07;1.10;;;0.80;;
6985;SDS011;3533;51.246;6.850;2022-09-17T01:57:35;0.80;;;0.80;;
6985;SDS011;3533;51.246;6.850;2022-09-17T02:02:49;1.07;;;0.90;;
6985;SDS011;3533;51.246;6.850;2022-09-17T02:05:24;0.80;;;0.80;;
6985;SDS011;3533;51.246;6.850;2022-09-17T02:07:57;1.07;;;1.00;;
6985;SDS011;3533;51.246;6.850;2022-09-17T02:10:34;1.23;;;0.80;;
6985;SDS011;3533;51.246;6.850;2022-09-17T02:13:08;1.23;;;0.90;;
6985;SDS011;3533;51.246;6.850;2022-09-17T02:15:40;1.00;;;0.90;;
6985;SDS011;3533;51.246;6.850;2022-09-17T02:18:16;1.23;;;0.83;;
6985;SDS011;3533;51.246;6.850;2022-09-17T02:20:51;1.00;;;0.90;;
6985;SDS011;3533;51.246;6.850;2022-09-17T02:23:25;0.80;;;0.80;;
6985;SDS011;3533;51.246;6.850;2022-09-17T02:30:55;0.80;;;0.80;;
6985;SDS011;3533;51.246;6.850;2022-09-17T02:33:21;0.80;;;0.70;;
6985;SDS011;3533;51.246;6.850;2022-09-17T02:35:48;0.90;;;0.77;;
6985;SDS011;3533;51.246;6.850;2022-09-17T02:38:20;0.80;;;0.70;;
6985;SDS011;3533;51.246;6.850;2022-09-17T02:40:48;1.80;;;0.70;;
6985;SDS011;3533;51.246;6.850;2022-09-17T02:46:13;1.20;;;0.80;;
6985;SDS011;3533;51.246;6.850;2022-09-17T02:49:17;1.00;;;0.70;;
6985;SDS011;3533;51.246;6.850;2022-09-17T03:02:43;0.80;;;0.70;;
6985;SDS011;3533;51.246;6.850;2022-09-17T03:05:22;0.83;;;0.80;;
6985;SDS011;3533;51.246;6.850;2022-09-17T03:07:50;1.00;;;0.80;;
6985;SDS011;3533;51.246;6.850;2022-09-17T03:10:16;1.10;;;0.80;;
6985;SDS011;3533;51.246;6.850;2022-09-17T03:12:42;1.10;;;0.90;;
6985;SDS011;3533;51.246;6.850;2022-09-17T03:15:08;0.80;;;0.70;;
6985;SDS011;3533;51.246;6.850;2022-09-17T03:17:34;0.90;;;0.90;;
6985;SDS011;3533;51.246;6.850;2022-09-17T03:19:59;1.73;;;1.03;;
6985;SDS011;3533;51.246;6.850;2022-09-17T03:22:25;0.90;;;0.80;;
6985;SDS011;3533;51.246;6.850;2022-09-17T03:24:51;1.10;;;1.00;;
6985;SDS011;3533;51.246;6.850;2022-09-17T03:27:16;0.80;;;0.70;;
6985;SDS011;3533;51.246;6.850;2022-09-17T03:29:42;1.07;;;0.90;;
6985;SDS011;3533;51.246;6.850;2022-09-17T03:32:08;2.13;;;0.80;;
6985;SDS011;3533;51.246;6.850;2022-09-17T03:34:33;1.83;;;0.70;;
6985;SDS011;3533;51.246;6.850;2022-09-17T03:36:59;0.83;;;0.63;;
6985;SDS011;3533;51.246;6.850;2022-09-17T03:39:24;1.13;;;0.80;;
6985;SDS011;3533;51.246;6.850;2022-09-17T03:41:50;0.70;;;0.63;;
6985;SDS011;3533;51.246;6.850;2022-09-17T03:44:16;0.70;;;0.60;;
6985;SDS011;3533;51.246;6.850;2022-09-17T03:46:43;1.10;;;0.70;;
6985;SDS011;3533;51.246;6.850;2022-09-17T03:49:09;1.10;;;0.90;;
6985;SDS011;3533;51.246;6.850;2022-09-17T03:51:34;0.80;;;0.70;;
6985;SDS011;3533;51.246;6.850;2022-09-17T03:54:00;0.93;;;0.80;;
6985;SDS011;3533;51.246;6.850;2022-09-17T03:56:27;0.87;;;0.87;;
6985;SDS011;3533;51.246;6.850;2022-09-17T03:58:55;0.83;;;0.70;;
6985;SDS011;3533;51.246;6.850;2022-09-17T04:01:25;0.80;;;0.70;;
6985;SDS011;3533;51.246;6.850;2022-09-17T04:03:51;0.73;;;0.73;;
6985;SDS011;3533;51.246;6.850;2022-09-17T04:06:17;1.20;;;0.70;;
6985;SDS011;3533;51.246;6.850;2022-09-17T04:08:43;0.90;;;0.73;;
6985;SDS011;3533;51.246;6.850;2022-09-17T04:11:09;1.00;;;0.70;;
6985;SDS011;3533;51.246;6.850;2022-09-17T04:13:34;0.77;;;0.67;;
6985;SDS011;3533;51.246;6.850;2022-09-17T04:16:00;0.67;;;0.60;;
6985;SDS011;3533;51.246;6.850;2022-09-17T04:18:26;0.90;;;0.80;;
6985;SDS011;3533;51.246;6.850;2022-09-17T04:20:52;0.63;;;0.60;;
6985;SDS011;3533;51.246;6.850;2022-09-17T04:23:17;1.10;;;0.70;;
6985;SDS011;3533;51.246;6.850;2022-09-17T04:25:43;1.00;;;0.90;;
6985;SDS011;3533;51.246;6.850;2022-09-17T04:28:09;1.07;;;0.70;;
6985;SDS011;3533;51.246;6.850;2022-09-17T04:30:35;0.80;;;0.80;;
6985;SDS011;3533;51.246;6.850;2022-09-17T04:33:00;2.40;;;0.90;;
6985;SDS011;3533;51.246;6.850;2022-09-17T04:35:26;1.13;;;0.70;;
6985;SDS011;3533;51.246;6.850;2022-09-17T04:37:52;0.83;;;0.73;;
6985;SDS011;3533;51.246;6.850;2022-09-17T04:40:22;1.40;;;0.83;;
6985;SDS011;3533;51.246;6.850;2022-09-17T04:42:52;0.80;;;0.80;;
6985;SDS011;3533;51.246;6.850;2022-09-17T04:45:19;0.80;;;0.70;;
6985;SDS011;3533;51.246;6.850;2022-09-17T04:47:45;0.80;;;0.70;;
6985;SDS011;3533;51.246;6.850;2022-09-17T04:50:11;1.10;;;0.80;;
6985;SDS011;3533;51.246;6.850;2022-09-17T04:52:40;1.40;;;0.77;;
6985;SDS011;3533;51.246;6.850;2022-09-17T04:55:07;0.90;;;0.70;;
6985;SDS011;3533;51.246;6.850;2022-09-17T04:57:33;0.80;;;0.77;;
6985;SDS011;3533;51.246;6.850;2022-09-17T04:59:58;2.50;;;1.03;;
6985;SDS011;3533;51.246;6.850;2022-09-17T05:02:24;1.20;;;0.70;;
6985;SDS011;3533;51.246;6.850;2022-09-17T05:04:49;1.00;;;0.80;;
6985;SDS011;3533;51.246;6.850;2022-09-17T05:07:15;0.83;;;0.73;;
6985;SDS011;3533;51.246;6.850;2022-09-17T05:09:41;0.93;;;0.70;;
6985;SDS011;3533;51.246;6.850;2022-09-17T05:12:06;0.80;;;0.80;;
6985;SDS011;3533;51.246;6.850;2022-09-17T05:14:32;0.93;;;0.80;;
6985;SDS011;3533;51.246;6.850;2022-09-17T05:16:57;0.70;;;0.70;;
6985;SDS011;3533;51.246;6.850;2022-09-17T05:19:23;1.67;;;0.70;;
6985;SDS011;3533;51.246;6.850;2022-09-17T05:21:48;0.70;;;0.70;;
6985;SDS011;3533;51.246;6.850;2022-09-17T05:24:14;0.80;;;0.70;;
6985;SDS011;3533;51.246;6.850;2022-09-17T05:26:39;0.93;;;0.90;;
6985;SDS011;3533;51.246;6.850;2022-09-17T05:29:05;0.90;;;0.80;;
6985;SDS011;3533;51.246;6.850;2022-09-17T05:31:30;1.00;;;0.80;;
6985;SDS011;3533;51.246;6.850;2022-09-17T05:33:56;1.10;;;0.77;;
6985;SDS011;3533;51.246;6.850;2022-09-17T05:36:22;0.73;;;0.60;;
6985;SDS011;3533;51.246;6.850;2022-09-17T05:38:48;0.80;;;0.70;;
6985;SDS011;3533;51.246;6.850;2022-09-17T05:41:14;0.70;;;0.70;;
6985;SDS011;3533;51.246;6.850;2022-09-17T05:43:41;0.80;;;0.70;;
6985;SDS011;3533;51.246;6.850;2022-09-17T05:46:07;0.90;;;0.73;;
6985;SDS011;3533;51.246;6.850;2022-09-17T05:48:32;0.87;;;0.80;;
6985;SDS011;3533;51.246;6.850;2022-09-17T05:50:58;0.83;;;0.70;;
6985;SDS011;3533;51.246;6.850;2022-09-17T05:53:24;1.10;;;0.80;;
6985;SDS011;3533;51.246;6.850;2022-09-17T05:55:49;1.63;;;0.90;;
6985;SDS011;3533;51.246;6.850;2022-09-17T05:58:15;0.90;;;0.70;;
6985;SDS011;3533;51.246;6.850;2022-09-17T06:00:43;0.87;;;0.57;;
6985;SDS011;3533;51.246;6.850;2022-09-17T06:03:13;0.77;;;0.70;;
6985;SDS011;3533;51.246;6.850;2022-09-17T06:05:39;0.80;;;0.77;;
6985;SDS011;3533;51.246;6.850;2022-09-17T06:08:05;0.80;;;0.70;;
6985;SDS011;3533;51.246;6.850;2022-09-17T06:10:34;0.70;;;0.60;;
6985;SDS011;3533;51.246;6.850;2022-09-17T06:13:01;0.90;;;0.67;;
6985;SDS011;3533;51.246;6.850;2022-09-17T06:15:27;1.00;;;0.90;;
6985;SDS011;3533;51.246;6.850;2022-09-17T06:17:52;1.10;;;0.80;;
6985;SDS011;3533;51.246;6.850;2022-09-17T06:20:18;0.80;;;0.70;;
6985;SDS011;3533;51.246;6.850;2022-09-17T06:22:45;1.27;;;0.70;;
6985;SDS011;3533;51.246;6.850;2022-09-17T06:25:10;1.00;;;0.77;;
6985;SDS011;3533;51.246;6.850;2022-09-17T06:27:36;0.73;;;0.70;;
6985;SDS011;3533;51.246;6.850;2022-09-17T06:30:02;0.90;;;0.70;;
6985;SDS011;3533;51.246;6.850;2022-09-17T06:32:29;0.80;;;0.60;;
6985;SDS011;3533;51.246;6.850;2022-09-17T06:34:54;0.80;;;0.70;;
6985;SDS011;3533;51.246;6.850;2022-09-17T06:37:30;0.97;;;0.80;;
6985;SDS011;3533;51.246;6.850;2022-09-17T06:39:57;0.60;;;0.60;;
6985;SDS011;3533;51.246;6.850;2022-09-17T06:42:23;1.03;;;0.80;;
6985;SDS011;3533;51.246;6.850;2022-09-17T06:44:49;1.00;;;0.70;;
6985;SDS011;3533;51.246;6.850;2022-09-17T06:47:15;0.77;;;0.63;;
6985;SDS011;3533;51.246;6.850;2022-09-17T06:49:40;1.37;;;0.83;;
6985;SDS011;3533;51.246;6.850;2022-09-17T06:52:06;2.60;;;0.60;;
6985;SDS011;3533;51.246;6.850;2022-09-17T06:54:31;2.13;;;0.70;;
6985;SDS011;3533;51.246;6.850;2022-09-17T06:56:57;0.90;;;0.80;;
6985;SDS011;3533;51.246;6.850;2022-09-17T06:59:23;0.73;;;0.60;;
6985;SDS011;3533;51.246;6.850;2022-09-17T07:01:50;0.97;;;0.80;;
6985;SDS011;3533;51.246;6.850;2022-09-17T07:04:15;1.90;;;0.90;;
6985;SDS011;3533;51.246;6.850;2022-09-17T07:06:42;0.70;;;0.70;;
6985;SDS011;3533;51.246;6.850;2022-09-17T07:09:09;1.73;;;0.80;;
6985;SDS011;3533;51.246;6.850;2022-09-17T07:11:35;1.10;;;0.80;;
6985;SDS011;3533;51.246;6.850;2022-09-17T07:14:01;1.73;;;0.60;;
6985;SDS011;3533;51.246;6.850;2022-09-17T07:16:28;1.33;;;0.73;;
6985;SDS011;3533;51.246;6.850;2022-09-17T07:18:56;0.80;;;0.63;;
6985;SDS011;3533;51.246;6.850;2022-09-17T07:21:21;1.63;;;0.90;;
6985;SDS011;3533;51.246;6.850;2022-09-17T07:23:47;1.93;;;0.90;;
6985;SDS011;3533;51.246;6.850;2022-09-17T07:26:14;1.80;;;0.90;;
6985;SDS011;3533;51.246;6.850;2022-09-17T07:28:41;5.67;;;0.93;;
6985;SDS011;3533;51.246;6.850;2022-09-17T07:31:08;2.27;;;0.80;;
6985;SDS011;3533;51.246;6.850;2022-09-17T07:33:35;6.00;;;1.00;;
6985;SDS011;3533;51.246;6.850;2022-09-17T07:36:02;73.47;;;5.67;;
6985;SDS011;3533;51.246;6.850;2022-09-17T07:38:30;83.67;;;16.10;;
6985;SDS011;3533;51.246;6.850;2022-09-17T07:43:22;74.90;;;16.40;;
6985;SDS011;3533;51.246;6.850;2022-09-17T07:45:48;57.87;;;13.37;;
6985;SDS011;3533;51.246;6.850;2022-09-17T07:48:14;42.63;;;8.27;;
6985;SDS011;3533;51.246;6.850;2022-09-17T07:50:39;31.40;;;7.67;;
6985;SDS011;3533;51.246;6.850;2022-09-17T07:53:05;32.33;;;7.67;;
6985;SDS011;3533;51.246;6.850;2022-09-17T07:55:31;28.70;;;6.47;;
6985;SDS011;3533;51.246;6.850;2022-09-17T07:57:56;25.87;;;5.90;;
6985;SDS011;3533;51.246;6.850;2022-09-17T08:00:22;16.50;;;5.40;;
6985;SDS011;3533;51.246;6.850;2022-09-17T08:02:54;18.83;;;6.00;;
6985;SDS011;3533;51.246;6.850;2022-09-17T08:05:20;19.90;;;5.90;;
6985;SDS011;3533;51.246;6.850;2022-09-17T08:07:50;7.23;;;3.60;;
6985;SDS011;3533;51.246;6.850;2022-09-17T08:10:16;17.37;;;5.00;;
6985;SDS011;3533;51.246;6.850;2022-09-17T08:12:45;9.40;;;3.50;;
6985;SDS011;3533;51.246;6.850;2022-09-17T08:15:12;6.87;;;2.80;;
6985;SDS011;3533;51.246;6.850;2022-09-17T08:17:43;7.73;;;2.93;;
6985;SDS011;3533;51.246;6.850;2022-09-17T08:20:10;6.27;;;2.83;;
6985;SDS011;3533;51.246;6.850;2022-09-17T08:22:36;7.10;;;3.13;;
6985;SDS011;3533;51.246;6.850;2022-09-17T08:25:02;6.90;;;2.97;;
6985;SDS011;3533;51.246;6.850;2022-09-17T08:27:31;4.10;;;2.03;;
6985;SDS011;3533;51.246;6.850;2022-09-17T08:29:57;4.53;;;2.57;;
6985;SDS011;3533;51.246;6.850;2022-09-17T08:32:23;3.03;;;2.70;;
6985;SDS011;3533;51.246;6.850;2022-09-17T08:34:49;7.60;;;2.93;;
6985;SDS011;3533;51.246;6.850;2022-09-17T08:37:14;6.80;;;2.43;;
6985;SDS011;3533;51.246;6.850;2022-09-17T08:39:40;5.93;;;1.87;;
6985;SDS011;3533;51.246;6.850;2022-09-17T08:44:40;3.03;;;1.70;;
6985;SDS011;3533;51.246;6.850;2022-09-17T08:47:15;5.07;;;2.20;;
6985;SDS011;3533;51.246;6.850;2022-09-17T08:49:49;7.93;;;1.90;;
6985;SDS011;3533;51.246;6.850;2022-09-17T08:58:14;5.27;;;1.80;;
6985;SDS011;3533;51.246;6.850;2022-09-17T09:00:47;3.40;;;1.70;;
6985;SDS011;3533;51.246;6.850;2022-09-17T09:03:32;2.87;;;1.60;;
6985;SDS011;3533;51.246;6.850;2022-09-17T09:06:15;3.57;;;1.30;;
6985;SDS011;3533;51.246;6.850;2022-09-17T09:08:44;1.80;;;1.40;;
6985;SDS011;3533;51.246;6.850;2022-09-17T09:11:27;4.80;;;1.73;;
6985;SDS011;3533;51.246;6.850;2022-09-17T09:16:37;2.83;;;1.53;;
6985;SDS011;3533;51.246;6.850;2022-09-17T09:19:19;2.00;;;1.20;;
6985;SDS011;3533;51.246;6.850;2022-09-17T09:25:00;2.03;;;1.43;;
6985;SDS011;3533;51.246;6.850;2022-09-17T09:27:36;5.53;;;1.60;;
6985;SDS011;3533;51.246;6.850;2022-09-17T09:30:11;7.93;;;1.30;;
6985;SDS011;3533;51.246;6.850;2022-09-17T09:35:29;4.10;;;1.37;;
6985;SDS011;3533;51.246;6.850;2022-09-17T09:38:04;1.63;;;1.00;;
6985;SDS011;3533;51.246;6.850;2022-09-17T09:46:24;1.20;;;1.03;;
6985;SDS011;3533;51.246;6.850;2022-09-17T09:49:03;11.73;;;1.47;;
6985;SDS011;3533;51.246;6.850;2022-09-17T09:51:38;2.40;;;1.10;;
6985;SDS011;3533;51.246;6.850;2022-09-17T09:57:16;3.30;;;1.23;;
6985;SDS011;3533;51.246;6.850;2022-09-17T09:59:46;1.10;;;0.97;;
6985;SDS011;3533;51.246;6.850;2022-09-17T10:02:12;1.83;;;1.10;;
6985;SDS011;3533;51.246;6.850;2022-09-17T10:04:38;3.70;;;1.20;;
6985;SDS011;3533;51.246;6.850;2022-09-17T10:07:07;2.33;;;1.10;;
6985;SDS011;3533;51.246;6.850;2022-09-17T10:09:35;3.67;;;1.40;;
6985;SDS011;3533;51.246;6.850;2022-09-17T10:14:35;1.40;;;1.00;;
6985;SDS011;3533;51.246;6.850;2022-09-17T10:19:43;2.30;;;1.00;;
6985;SDS011;3533;51.246;6.850;2022-09-17T10:22:22;1.10;;;1.00;;
6985;SDS011;3533;51.246;6.850;2022-09-17T10:24:55;1.23;;;0.80;;
6985;SDS011;3533;51.246;6.850;2022-09-17T10:27:23;1.07;;;0.80;;
6985;SDS011;3533;51.246;6.850;2022-09-17T10:29:50;2.20;;;1.00;;
6985;SDS011;3533;51.246;6.850;2022-09-17T10:32:31;1.83;;;0.80;;
6985;SDS011;3533;51.246;6.850;2022-09-17T10:37:32;2.40;;;1.00;;
6985;SDS011;3533;51.246;6.850;2022-09-17T10:42:43;3.20;;;0.90;;
6985;SDS011;3533;51.246;6.850;2022-09-17T10:45:23;1.50;;;0.90;;
6985;SDS011;3533;51.246;6.850;2022-09-17T10:47:50;1.33;;;1.10;;
6985;SDS011;3533;51.246;6.850;2022-09-17T10:50:17;1.37;;;0.80;;
6985;SDS011;3533;51.246;6.850;2022-09-17T10:52:47;1.70;;;0.80;;
6985;SDS011;3533;51.246;6.850;2022-09-17T11:12:39;1.13;;;0.80;;
6985;SDS011;3533;51.246;6.850;2022-09-17T11:15:28;0.80;;;0.80;;
6985;SDS011;3533;51.246;6.850;2022-09-17T11:18:21;1.00;;;0.80;;
6985;SDS011;3533;51.246;6.850;2022-09-17T11:34:59;0.80;;;0.70;;
6985;SDS011;3533;51.246;6.850;2022-09-17T11:37:47;1.70;;;0.83;;
6985;SDS011;3533;51.246;6.850;2022-09-17T11:40:15;0.87;;;0.73;;
6985;SDS011;3533;51.246;6.850;2022-09-17T11:42:52;1.07;;;0.80;;
6985;SDS011;3533;51.246;6.850;2022-09-17T11:45:38;1.57;;;0.70;;
6985;SDS011;3533;51.246;6.850;2022-09-17T11:48:11;0.83;;;0.70;;
6985;SDS011;3533;51.246;6.850;2022-09-17T11:50:42;1.00;;;0.80;;
6985;SDS011;3533;51.246;6.850;2022-09-17T11:56:01;0.80;;;0.60;;
6985;SDS011;3533;51.246;6.850;2022-09-17T11:58:48;0.70;;;0.70;;
6985;SDS011;3533;51.246;6.850;2022-09-17T12:01:18;1.00;;;0.80;;
6985;SDS011;3533;51.246;6.850;2022-09-17T12:04:00;1.30;;;0.70;;
6985;SDS011;3533;51.246;6.850;2022-09-17T12:06:37;1.30;;;0.80;;
6985;SDS011;3533;51.246;6.850;2022-09-17T12:11:48;1.17;;;0.70;;
6985;SDS011;3533;51.246;6.850;2022-09-17T12:14:25;0.80;;;0.70;;
6985;SDS011;3533;51.246;6.850;2022-09-17T12:17:05;1.20;;;0.60;;
6985;SDS011;3533;51.246;6.850;2022-09-17T12:19:39;0.90;;;0.77;;
6985;SDS011;3533;51.246;6.850;2022-09-17T12:22:29;0.80;;;0.70;;
6985;SDS011;3533;51.246;6.850;2022-09-17T12:24:58;1.00;;;0.57;;
6985;SDS011;3533;51.246;6.850;2022-09-17T12:30:04;1.00;;;0.80;;
6985;SDS011;3533;51.246;6.850;2022-09-17T12:35:17;1.20;;;0.70;;
6985;SDS011;3533;51.246;6.850;2022-09-17T12:49:31;0.80;;;0.70;;
6985;SDS011;3533;51.246;6.850;2022-09-17T12:57:49;0.70;;;0.53;;
6985;SDS011;3533;51.246;6.850;2022-09-17T13:00:37;0.90;;;0.83;;
6985;SDS011;3533;51.246;6.850;2022-09-17T13:13:58;0.70;;;0.70;;
6985;SDS011;3533;51.246;6.850;2022-09-17T13:16:38;0.77;;;0.70;;
6985;SDS011;3533;51.246;6.850;2022-09-17T13:19:43;0.70;;;0.53;;
6985;SDS011;3533;51.246;6.850;2022-09-17T13:22:19;0.80;;;0.60;;
6985;SDS011;3533;51.246;6.850;2022-09-17T13:24:47;0.70;;;0.50;;
6985;SDS011;3533;51.246;6.850;2022-09-17T13:27:29;0.80;;;0.63;;
6985;SDS011;3533;51.246;6.850;2022-09-17T13:29:56;0.90;;;0.70;;
6985;SDS011;3533;51.246;6.850;2022-09-17T13:37:41;0.80;;;0.60;;
6985;SDS011;3533;51.246;6.850;2022-09-17T13:40:35;0.80;;;0.70;;
6985;SDS011;3533;51.246;6.850;2022-09-17T13:45:26;1.00;;;0.80;;
6985;SDS011;3533;51.246;6.850;2022-09-17T13:58:07;1.30;;;0.90;;
6985;SDS011;3533;51.246;6.850;2022-09-17T14:11:35;22.90;;;2.53;;
6985;SDS011;3533;51.246;6.850;2022-09-17T14:16:32;20.97;;;2.83;;
6985;SDS011;3533;51.246;6.850;2022-09-17T14:22:13;10.37;;;2.00;;
6985;SDS011;3533;51.246;6.850;2022-09-17T14:24:50;22.93;;;2.33;;
6985;SDS011;3533;51.246;6.850;2022-09-17T14:30:46;51.00;;;7.77;;
6985;SDS011;3533;51.246;6.850;2022-09-17T14:35:41;17.33;;;4.40;;
6985;SDS011;3533;51.246;6.850;2022-09-17T14:38:12;18.80;;;4.27;;
6985;SDS011;3533;51.246;6.850;2022-09-17T14:40:59;16.93;;;3.03;;
6985;SDS011;3533;51.246;6.850;2022-09-17T14:43:40;15.50;;;5.00;;
6985;SDS011;3533;51.246;6.850;2022-09-17T14:46:32;40.07;;;6.10;;
6985;SDS011;3533;51.246;6.850;2022-09-17T14:49:27;290.93;;;28.30;;
6985;SDS011;3533;51.246;6.850;2022-09-17T14:52:00;383.37;;;35.70;;
6985;SDS011;3533;51.246;6.850;2022-09-17T14:54:43;271.93;;;35.50;;
6985;SDS011;3533;51.246;6.850;2022-09-17T15:02:02;70.27;;;14.07;;
6985;SDS011;3533;51.246;6.850;2022-09-17T15:04:43;62.30;;;14.30;;
6985;SDS011;3533;51.246;6.850;2022-09-17T15:07:10;47.80;;;10.50;;
6985;SDS011;3533;51.246;6.850;2022-09-17T15:09:36;35.50;;;8.80;;
6985;SDS011;3533;51.246;6.850;2022-09-17T15:12:02;38.40;;;7.60;;
6985;SDS011;3533;51.246;6.850;2022-09-17T15:14:30;56.80;;;8.93;;
6985;SDS011;3533;51.246;6.850;2022-09-17T15:17:00;20.27;;;7.40;;
6985;SDS011;3533;51.246;6.850;2022-09-17T15:19:38;19.80;;;5.37;;
6985;SDS011;3533;51.246;6.850;2022-09-17T15:22:11;22.23;;;6.73;;
6985;SDS011;3533;51.246;6.850;2022-09-17T15:24:47;28.30;;;5.57;;
6985;SDS011;3533;51.246;6.850;2022-09-17T15:29:53;21.77;;;4.10;;
6985;SDS011;3533;51.246;6.850;2022-09-17T15:32:23;10.27;;;3.83;;
6985;SDS011;3533;51.246;6.850;2022-09-17T15:37:42;6.50;;;3.20;;
6985;SDS011;3533;51.246;6.850;2022-09-17T15:40:22;16.17;;;3.87;;
6985;SDS011;3533;51.246;6.850;2022-09-17T15:43:24;7.63;;;3.07;;
6985;SDS011;3533;51.246;6.850;2022-09-17T15:45:53;5.10;;;3.13;;
6985;SDS011;3533;51.246;6.850;2022-09-17T15:50:59;6.60;;;2.43;;
6985;SDS011;3533;51.246;6.850;2022-09-17T15:53:27;10.77;;;2.77;;
6985;SDS011;3533;51.246;6.850;2022-09-17T15:56:03;3.60;;;2.53;;
6985;SDS011;3533;51.246;6.850;2022-09-17T16:08:50;4.40;;;2.67;;
6985;SDS011;3533;51.246;6.850;2022-09-17T16:11:28;9.50;;;2.40;;
6985;SDS011;3533;51.246;6.850;2022-09-17T16:13:55;6.37;;;3.20;;
6985;SDS011;3533;51.246;6.850;2022-09-17T16:16:23;7.17;;;2.60;;
6985;SDS011;3533;51.246;6.850;2022-09-17T16:18:52;3.67;;;1.90;;
6985;SDS011;3533;51.246;6.850;2022-09-17T16:21:18;4.20;;;2.10;;
6985;SDS011;3533;51.246;6.850;2022-09-17T16:23:44;6.07;;;2.40;;
6985;SDS011;3533;51.246;6.850;2022-09-17T16:26:14;3.50;;;2.17;;
6985;SDS011;3533;51.246;6.850;2022-09-17T16:28:42;6.43;;;2.00;;
6985;SDS011;3533;51.246;6.850;2022-09-17T16:31:11;2.67;;;2.13;;
6985;SDS011;3533;51.246;6.850;2022-09-17T16:33:38;3.47;;;2.00;;
6985;SDS011;3533;51.246;6.850;2022-09-17T16:36:03;3.03;;;1.93;;
6985;SDS011;3533;51.246;6.850;2022-09-17T16:38:29;2.37;;;1.77;;
6985;SDS011;3533;51.246;6.850;2022-09-17T16:40:55;8.23;;;2.07;;
6985;SDS011;3533;51.246;6.850;2022-09-17T16:43:20;2.10;;;1.90;;
6985;SDS011;3533;51.246;6.850;2022-09-17T16:45:59;3.40;;;2.00;;
6985;SDS011;3533;51.246;6.850;2022-09-17T16:48:25;2.83;;;1.80;;
6985;SDS011;3533;51.246;6.850;2022-09-17T16:50:51;3.63;;;2.03;;
6985;SDS011;3533;51.246;6.850;2022-09-17T16:53:16;4.40;;;2.23;;
6985;SDS011;3533;51.246;6.850;2022-09-17T16:55:42;2.70;;;2.23;;
6985;SDS011;3533;51.246;6.850;2022-09-17T16:58:08;4.60;;;2.33;;
6985;SDS011;3533;51.246;6.850;2022-09-17T17:00:33;2.67;;;2.20;;
6985;SDS011;3533;51.246;6.850;2022-09-17T17:03:01;4.30;;;2.30;;
6985;SDS011;3533;51.246;6.850;2022-09-17T17:05:28;5.40;;;2.53;;
6985;SDS011;3533;51.246;6.850;2022-09-17T17:07:55;2.97;;;2.10;;
6985;SDS011;3533;51.246;6.850;2022-09-17T17:10:22;4.43;;;2.50;;
6985;SDS011;3533;51.246;6.850;2022-09-17T17:12:50;4.40;;;2.80;;
6985;SDS011;3533;51.246;6.850;2022-09-17T17:15:16;3.10;;;2.80;;
6985;SDS011;3533;51.246;6.850;2022-09-17T17:17:42;8.10;;;2.70;;
6985;SDS011;3533;51.246;6.850;2022-09-17T17:20:08;3.53;;;2.63;;
6985;SDS011;3533;51.246;6.850;2022-09-17T17:22:35;3.43;;;2.90;;
6985;SDS011;3533;51.246;6.850;2022-09-17T17:25:02;4.80;;;3.00;;
6985;SDS011;3533;51.246;6.850;2022-09-17T17:27:29;3.10;;;2.80;;
6985;SDS011;3533;51.246;6.850;2022-09-17T17:29:55;5.43;;;2.97;;
6985;SDS011;3533;51.246;6.850;2022-09-17T17:32:20;2.60;;;2.40;;
6985;SDS011;3533;51.246;6.850;2022-09-17T17:34:46;3.00;;;2.70;;
6985;SDS011;3533;51.246;6.850;2022-09-17T17:37:12;4.87;;;3.20;;
6985;SDS011;3533;51.246;6.850;2022-09-17T17:39:38;3.40;;;2.93;;
6985;SDS011;3533;51.246;6.850;2022-09-17T17:42:04;5.10;;;3.23;;
6985;SDS011;3533;51.246;6.850;2022-09-17T17:44:31;3.17;;;2.97;;
6985;SDS011;3533;51.246;6.850;2022-09-17T17:46:56;5.77;;;3.97;;
6985;SDS011;3533;51.246;6.850;2022-09-17T17:49:21;4.07;;;3.23;;
6985;SDS011;3533;51.246;6.850;2022-09-17T17:51:47;3.27;;;2.97;;
6985;SDS011;3533;51.246;6.850;2022-09-17T17:54:13;5.63;;;3.67;;
6985;SDS011;3533;51.246;6.850;2022-09-17T17:56:38;3.73;;;2.87;;
6985;SDS011;3533;51.246;6.850;2022-09-17T17:59:04;3.10;;;2.83;;
6985;SDS011;3533;51.246;6.850;2022-09-17T18:01:30;3.40;;;3.20;;
6985;SDS011;3533;51.246;6.850;2022-09-17T18:03:59;3.67;;;3.37;;
6985;SDS011;3533;51.246;6.850;2022-09-17T18:06:26;3.50;;;3.20;;
6985;SDS011;3533;51.246;6.850;2022-09-17T18:08:53;3.27;;;2.97;;
6985;SDS011;3533;51.246;6.850;2022-09-17T18:11:19;4.30;;;3.40;;
6985;SDS011;3533;51.246;6.850;2022-09-17T18:13:45;3.50;;;3.30;;
6985;SDS011;3533;51.246;6.850;2022-09-17T18:16:14;7.67;;;4.03;;
6985;SDS011;3533;51.246;6.850;2022-09-17T18:18:40;3.87;;;3.47;;
6985;SDS011;3533;51.246;6.850;2022-09-17T18:21:07;3.50;;;3.20;;
6985;SDS011;3533;51.246;6.850;2022-09-17T18:23:35;3.10;;;2.90;;
6985;SDS011;3533;51.246;6.850;2022-09-17T18:26:03;3.47;;;3.13;;
6985;SDS011;3533;51.246;6.850;2022-09-17T18:28:32;3.10;;;2.90;;
6985;SDS011;3533;51.246;6.850;2022-09-17T18:31:05;5.00;;;3.17;;
6985;SDS011;3533;51.246;6.850;2022-09-17T18:33:33;3.63;;;3.20;;
6985;SDS011;3533;51.246;6.850;2022-09-17T18:36:00;3.40;;;3.07;;
6985;SDS011;3533;51.246;6.850;2022-09-17T18:38:27;3.73;;;3.00;;
6985;SDS011;3533;51.246;6.850;2022-09-17T18:40:53;2.83;;;2.60;;
6985;SDS011;3533;51.246;6.850;2022-09-17T18:43:19;3.10;;;2.80;;
6985;SDS011;3533;51.246;6.850;2022-09-17T18:46:03;5.53;;;2.87;;
6985;SDS011;3533;51.246;6.850;2022-09-17T18:48:29;3.23;;;3.03;;
6985;SDS011;3533;51.246;6.850;2022-09-17T18:50:56;4.37;;;3.03;;
6985;SDS011;3533;51.246;6.850;2022-09-17T18:53:22;3.53;;;3.17;;
6985;SDS011;3533;51.246;6.850;2022-09-17T18:55:49;3.30;;;2.83;;
6985;SDS011;3533;51.246;6.850;2022-09-17T18:58:14;6.73;;;3.30;;
6985;SDS011;3533;51.246;6.850;2022-09-17T19:00:40;3.93;;;2.80;;
6985;SDS011;3533;51.246;6.850;2022-09-17T19:03:05;2.70;;;2.50;;
6985;SDS011;3533;51.246;6.850;2022-09-17T19:05:31;3.53;;;2.97;;
6985;SDS011;3533;51.246;6.850;2022-09-17T19:07:56;3.40;;;3.20;;
6985;SDS011;3533;51.246;6.850;2022-09-17T19:10:22;3.87;;;2.93;;